sensor_id;sensor_type;location;lat;lon;timestamp;pressure;altitude;pressure_sealevel;temperature;humidity
59419;BME280;45224;50.904;6.038;2023-10-09T00:00:08;100336.78;;;18.75;70.76
59419;BME280;45224;50.904;6.038;2023-10-09T00:02:01;100335.84;;;18.77;70.97
59419;BME280;45224;50.904;6.038;2023-10-09T00:03:36;100342.03;;;18.75;71.07
59419;BME280;45224;50.904;6.038;2023-10-09T00:05:08;100334.28;;;18.70;71.18
59419;BME280;45224;50.904;6.038;2023-10-09T00:06:42;100335.06;;;18.74;71.01
59419;BME280;45224;50.904;6.038;2023-10-09T00:08:14;100335.91;;;18.74;71.05
59419;BME280;45224;50.904;6.038;2023-10-09T00:10:03;100333.44;;;18.68;71.38
59419;BME280;45224;50.904;6.038;2023-10-09T00:11:42;100330.81;;;18.68;71.16
59419;BME280;45224;50.904;6.038;2023-10-09T00:13:15;100331.66;;;18.70;71.01
59419;BME280;45224;50.904;6.038;2023-10-09T00:14:46;100329.91;;;18.71;70.99
59419;BME280;45224;50.904;6.038;2023-10-09T00:16:20;100319.69;;;18.60;71.72
59419;BME280;45224;50.904;6.038;2023-10-09T00:18:03;100321.34;;;18.64;71.51
59419;BME280;45224;50.904;6.038;2023-10-09T00:19:35;100322.28;;;18.60;71.84
59419;BME280;45224;50.904;6.038;2023-10-09T00:21:07;100320.59;;;18.59;71.65
59419;BME280;45224;50.904;6.038;2023-10-09T00:22:45;100317.13;;;18.57;71.76
59419;BME280;45224;50.904;6.038;2023-10-09T00:24:16;100323.28;;;18.56;72.00
59419;BME280;45224;50.904;6.038;2023-10-09T00:25:53;100320.66;;;18.56;71.80
59419;BME280;45224;50.904;6.038;2023-10-09T00:27:44;100324.25;;;18.52;71.73
59419;BME280;45224;50.904;6.038;2023-10-09T00:29:18;100318.94;;;18.55;72.03
59419;BME280;45224;50.904;6.038;2023-10-09T00:30:58;100321.53;;;18.56;71.47
59419;BME280;45224;50.904;6.038;2023-10-09T00:32:29;100312.88;;;18.53;71.82
59419;BME280;45224;50.904;6.038;2023-10-09T00:34:03;100313.84;;;18.49;72.53
59419;BME280;45224;50.904;6.038;2023-10-09T00:35:38;100314.84;;;18.45;72.59
59419;BME280;45224;50.904;6.038;2023-10-09T00:37:14;100308.84;;;18.39;73.10
59419;BME280;45224;50.904;6.038;2023-10-09T00:38:52;100312.22;;;18.45;72.76
59419;BME280;45224;50.904;6.038;2023-10-09T00:40:30;100318.31;;;18.45;72.96
59419;BME280;45224;50.904;6.038;2023-10-09T00:42:02;100307.06;;;18.41;73.09
59419;BME280;45224;50.904;6.038;2023-10-09T00:43:33;100305.25;;;18.43;72.61
59419;BME280;45224;50.904;6.038;2023-10-09T00:45:06;100302.69;;;18.40;73.04
59419;BME280;45224;50.904;6.038;2023-10-09T00:46:40;100307.13;;;18.38;73.24
59419;BME280;45224;50.904;6.038;2023-10-09T00:48:13;100303.69;;;18.36;73.47
59419;BME280;45224;50.904;6.038;2023-10-09T00:51:33;100306.31;;;18.36;73.32
59419;BME280;45224;50.904;6.038;2023-10-09T00:53:08;100300.22;;;18.34;73.34
59419;BME280;45224;50.904;6.038;2023-10-09T00:54:43;100301.06;;;18.36;73.21
59419;BME280;45224;50.904;6.038;2023-10-09T00:56:14;100303.69;;;18.36;73.28
59419;BME280;45224;50.904;6.038;2023-10-09T00:57:57;100296.75;;;18.34;73.34
59419;BME280;45224;50.904;6.038;2023-10-09T00:59:29;100296.78;;;18.32;73.79
59419;BME280;45224;50.904;6.038;2023-10-09T01:01:00;100295.91;;;18.33;73.73
59419;BME280;45224;50.904;6.038;2023-10-09T01:02:34;100297.00;;;18.23;74.82
59419;BME280;45224;50.904;6.038;2023-10-09T01:04:12;100286.47;;;18.26;74.22
59419;BME280;45224;50.904;6.038;2023-10-09T01:05:50;100284.84;;;18.22;74.81
59419;BME280;45224;50.904;6.038;2023-10-09T01:07:23;100280.50;;;18.21;74.66
59419;BME280;45224;50.904;6.038;2023-10-09T01:08:56;100290.88;;;18.24;74.56
59419;BME280;45224;50.904;6.038;2023-10-09T01:10:46;100280.41;;;18.24;74.44
59419;BME280;45224;50.904;6.038;2023-10-09T01:12:22;100284.13;;;18.15;75.44
59419;BME280;45224;50.904;6.038;2023-10-09T01:13:52;100286.78;;;18.14;75.48
59419;BME280;45224;50.904;6.038;2023-10-09T01:15:23;100281.38;;;18.20;75.20
59419;BME280;45224;50.904;6.038;2023-10-09T01:17:14;100277.88;;;18.21;74.96
59419;BME280;45224;50.904;6.038;2023-10-09T01:19:04;100277.06;;;18.19;75.36
59419;BME280;45224;50.904;6.038;2023-10-09T01:20:53;100281.38;;;18.20;75.22
59419;BME280;45224;50.904;6.038;2023-10-09T01:22:24;100282.16;;;18.25;74.92
59419;BME280;45224;50.904;6.038;2023-10-09T01:23:55;100272.56;;;18.24;75.34
59419;BME280;45224;50.904;6.038;2023-10-09T01:25:37;100269.97;;;18.22;75.17
59419;BME280;45224;50.904;6.038;2023-10-09T01:27:15;100269.13;;;18.22;75.26
59419;BME280;45224;50.904;6.038;2023-10-09T01:28:46;100271.81;;;18.19;75.64
59419;BME280;45224;50.904;6.038;2023-10-09T01:30:16;100272.56;;;18.24;75.28
59419;BME280;45224;50.904;6.038;2023-10-09T01:31:48;100265.59;;;18.23;75.35
59419;BME280;45224;50.904;6.038;2023-10-09T01:33:25;100263.91;;;18.22;75.53
59419;BME280;45224;50.904;6.038;2023-10-09T01:34:58;100264.72;;;18.24;75.44
59419;BME280;45224;50.904;6.038;2023-10-09T01:36:28;100263.94;;;18.20;75.95
59419;BME280;45224;50.904;6.038;2023-10-09T01:38:02;100258.66;;;18.22;75.88
59419;BME280;45224;50.904;6.038;2023-10-09T01:39:33;100263.91;;;18.22;75.66
59419;BME280;45224;50.904;6.038;2023-10-09T01:41:13;100263.81;;;18.25;75.77
59419;BME280;45224;50.904;6.038;2023-10-09T01:42:50;100260.38;;;18.23;75.88
59419;BME280;45224;50.904;6.038;2023-10-09T01:44:20;100261.31;;;18.20;76.03
59419;BME280;45224;50.904;6.038;2023-10-09T01:45:52;100260.44;;;18.20;76.28
59419;BME280;45224;50.904;6.038;2023-10-09T01:47:23;100261.25;;;18.23;75.90
59419;BME280;45224;50.904;6.038;2023-10-09T01:48:53;100256.75;;;18.29;75.66
59419;BME280;45224;50.904;6.038;2023-10-09T01:50:25;100253.28;;;18.28;75.70
59419;BME280;45224;50.904;6.038;2023-10-09T01:52:01;100252.38;;;18.29;75.53
59419;BME280;45224;50.904;6.038;2023-10-09T01:53:37;100252.34;;;18.31;75.55
59419;BME280;45224;50.904;6.038;2023-10-09T01:55:08;100252.25;;;18.34;75.16
59419;BME280;45224;50.904;6.038;2023-10-09T01:56:43;100258.38;;;18.33;75.77
59419;BME280;45224;50.904;6.038;2023-10-09T01:58:17;100267.13;;;18.33;75.73
59419;BME280;45224;50.904;6.038;2023-10-09T01:59:57;100270.50;;;18.37;75.41
59419;BME280;45224;50.904;6.038;2023-10-09T02:01:28;100273.16;;;18.35;75.52
59419;BME280;45224;50.904;6.038;2023-10-09T02:02:58;100269.72;;;18.33;75.81
59419;BME280;45224;50.904;6.038;2023-10-09T02:04:34;100269.03;;;18.27;76.01
59419;BME280;45224;50.904;6.038;2023-10-09T02:06:05;100265.47;;;18.29;75.90
59419;BME280;45224;50.904;6.038;2023-10-09T02:07:55;100257.75;;;18.23;76.39
59419;BME280;45224;50.904;6.038;2023-10-09T02:09:28;100257.63;;;18.28;76.14
59419;BME280;45224;50.904;6.038;2023-10-09T02:11:01;100246.41;;;18.24;76.42
59419;BME280;45224;50.904;6.038;2023-10-09T02:12:32;100247.25;;;18.24;76.46
59419;BME280;45224;50.904;6.038;2023-10-09T02:14:04;100243.81;;;18.22;76.58
59419;BME280;45224;50.904;6.038;2023-10-09T02:15:50;100255.06;;;18.26;76.12
59419;BME280;45224;50.904;6.038;2023-10-09T02:17:20;100254.34;;;18.19;76.95
59419;BME280;45224;50.904;6.038;2023-10-09T02:18:55;100263.91;;;18.22;76.64
59419;BME280;45224;50.904;6.038;2023-10-09T02:20:29;100261.94;;;18.30;76.31
59419;BME280;45224;50.904;6.038;2023-10-09T02:22:02;100265.56;;;18.24;76.46
59419;BME280;45224;50.904;6.038;2023-10-09T02:23:45;100264.69;;;18.25;76.54
59419;BME280;45224;50.904;6.038;2023-10-09T02:25:15;100266.41;;;18.27;76.49
59419;BME280;45224;50.904;6.038;2023-10-09T02:26:50;100275.94;;;18.29;76.37
59419;BME280;45224;50.904;6.038;2023-10-09T02:28:23;100272.56;;;18.24;76.21
59419;BME280;45224;50.904;6.038;2023-10-09T02:29:54;100275.06;;;18.29;76.17
59419;BME280;45224;50.904;6.038;2023-10-09T02:31:28;100271.72;;;18.23;76.45
59419;BME280;45224;50.904;6.038;2023-10-09T02:33:05;100279.34;;;18.31;75.62
59419;BME280;45224;50.904;6.038;2023-10-09T02:34:40;100269.84;;;18.29;75.92
59419;BME280;45224;50.904;6.038;2023-10-09T02:36:11;100274.22;;;18.28;75.82
59419;BME280;45224;50.904;6.038;2023-10-09T02:37:43;100271.56;;;18.30;75.68
59419;BME280;45224;50.904;6.038;2023-10-09T02:39:15;100268.03;;;18.31;75.73
59419;BME280;45224;50.904;6.038;2023-10-09T02:40:56;100258.59;;;18.25;75.93
59419;BME280;45224;50.904;6.038;2023-10-09T02:42:32;100257.69;;;18.26;76.19
59419;BME280;45224;50.904;6.038;2023-10-09T02:44:03;100256.88;;;18.24;76.07
59419;BME280;45224;50.904;6.038;2023-10-09T02:45:41;100263.91;;;18.22;76.35
59419;BME280;45224;50.904;6.038;2023-10-09T02:47:20;100256.97;;;18.19;76.07
59419;BME280;45224;50.904;6.038;2023-10-09T02:48:56;100258.66;;;18.22;75.77
59419;BME280;45224;50.904;6.038;2023-10-09T02:50:27;100266.66;;;18.16;76.15
59419;BME280;45224;50.904;6.038;2023-10-09T02:52:08;100257.91;;;18.17;75.97
59419;BME280;45224;50.904;6.038;2023-10-09T02:53:40;100260.53;;;18.17;75.92
59419;BME280;45224;50.904;6.038;2023-10-09T02:55:11;100251.91;;;18.12;76.24
59419;BME280;45224;50.904;6.038;2023-10-09T02:56:54;100252.81;;;18.11;76.04
59419;BME280;45224;50.904;6.038;2023-10-09T02:58:37;100253.66;;;18.13;75.86
59419;BME280;45224;50.904;6.038;2023-10-09T03:00:09;100245.91;;;18.08;76.11
59419;BME280;45224;50.904;6.038;2023-10-09T03:01:50;100262.41;;;18.10;75.90
59419;BME280;45224;50.904;6.038;2023-10-09T03:03:23;100258.91;;;18.11;75.90
59419;BME280;45224;50.904;6.038;2023-10-09T03:04:53;100266.78;;;18.10;75.95
59419;BME280;45224;50.904;6.038;2023-10-09T03:06:25;100269.47;;;18.06;75.96
59419;BME280;45224;50.904;6.038;2023-10-09T03:08:01;100265.19;;;18.04;76.20
59419;BME280;45224;50.904;6.038;2023-10-09T03:09:32;100269.53;;;18.03;76.03
59419;BME280;45224;50.904;6.038;2023-10-09T03:11:05;100277.31;;;18.06;75.98
59419;BME280;45224;50.904;6.038;2023-10-09T03:12:36;100273.00;;;18.05;75.96
59419;BME280;45224;50.904;6.038;2023-10-09T03:14:09;100266.13;;;18.01;76.16
59419;BME280;45224;50.904;6.038;2023-10-09T03:15:40;100255.66;;;18.01;75.91
59419;BME280;45224;50.904;6.038;2023-10-09T03:17:13;100261.66;;;18.05;75.48
59419;BME280;45224;50.904;6.038;2023-10-09T03:18:43;100248.75;;;17.97;76.13
59419;BME280;45224;50.904;6.038;2023-10-09T03:20:15;100252.34;;;17.93;76.15
59419;BME280;45224;50.904;6.038;2023-10-09T03:21:47;100247.19;;;17.90;76.18
59419;BME280;45224;50.904;6.038;2023-10-09T03:23:18;100252.41;;;17.90;76.25
59419;BME280;45224;50.904;6.038;2023-10-09T03:24:48;100249.03;;;17.85;76.47
59419;BME280;45224;50.904;6.038;2023-10-09T03:26:20;100245.47;;;17.89;76.12
59419;BME280;45224;50.904;6.038;2023-10-09T03:27:51;100245.50;;;17.86;76.21
59419;BME280;45224;50.904;6.038;2023-10-09T03:29:24;100250.63;;;17.92;75.88
59419;BME280;45224;50.904;6.038;2023-10-09T03:30:55;100248.03;;;17.91;75.86
59419;BME280;45224;50.904;6.038;2023-10-09T03:32:25;100248.09;;;17.86;76.18
59419;BME280;45224;50.904;6.038;2023-10-09T03:33:56;100251.66;;;17.83;76.21
59419;BME280;45224;50.904;6.038;2023-10-09T03:35:26;100247.22;;;17.87;75.86
59419;BME280;45224;50.904;6.038;2023-10-09T03:37:03;100246.44;;;17.83;76.06
59419;BME280;45224;50.904;6.038;2023-10-09T03:38:37;100242.03;;;17.85;76.01
59419;BME280;45224;50.904;6.038;2023-10-09T03:40:09;100244.59;;;17.88;75.70
59419;BME280;45224;50.904;6.038;2023-10-09T03:41:46;100240.25;;;17.86;75.86
59419;BME280;45224;50.904;6.038;2023-10-09T03:43:17;100242.88;;;17.87;75.78
59419;BME280;45224;50.904;6.038;2023-10-09T03:44:49;100252.47;;;17.87;75.76
59419;BME280;45224;50.904;6.038;2023-10-09T03:46:23;100247.69;;;17.67;76.79
59419;BME280;45224;50.904;6.038;2023-10-09T03:48:03;100251.88;;;17.74;76.18
59419;BME280;45224;50.904;6.038;2023-10-09T03:49:42;100252.81;;;17.72;76.51
59419;BME280;45224;50.904;6.038;2023-10-09T03:51:14;100252.72;;;17.75;76.32
59419;BME280;45224;50.904;6.038;2023-10-09T03:52:54;100251.84;;;17.76;76.14
59419;BME280;45224;50.904;6.038;2023-10-09T03:54:25;100240.56;;;17.74;76.22
59419;BME280;45224;50.904;6.038;2023-10-09T03:55:55;100234.63;;;17.67;76.98
59419;BME280;45224;50.904;6.038;2023-10-09T03:57:26;100235.50;;;17.66;76.59
59419;BME280;45224;50.904;6.038;2023-10-09T03:58:56;100243.28;;;17.69;76.45
59419;BME280;45224;50.904;6.038;2023-10-09T04:00:28;100234.41;;;17.75;76.25
59419;BME280;45224;50.904;6.038;2023-10-09T04:01:59;100232.84;;;17.67;76.68
59419;BME280;45224;50.904;6.038;2023-10-09T04:03:29;100233.66;;;17.69;76.42
59419;BME280;45224;50.904;6.038;2023-10-09T04:05:00;100236.25;;;17.71;76.33
59419;BME280;45224;50.904;6.038;2023-10-09T04:06:31;100232.88;;;17.66;76.70
59419;BME280;45224;50.904;6.038;2023-10-09T04:08:04;100243.38;;;17.64;76.71
59419;BME280;45224;50.904;6.038;2023-10-09T04:09:44;100237.69;;;17.44;78.09
59419;BME280;45224;50.904;6.038;2023-10-09T04:11:40;100236.00;;;17.43;77.91
59419;BME280;45224;50.904;6.038;2023-10-09T04:13:13;100238.53;;;17.47;77.86
59419;BME280;45224;50.904;6.038;2023-10-09T04:14:52;100241.09;;;17.49;77.49
59419;BME280;45224;50.904;6.038;2023-10-09T04:16:27;100248.09;;;17.47;77.70
59419;BME280;45224;50.904;6.038;2023-10-09T04:18:01;100246.22;;;17.53;77.21
59419;BME280;45224;50.904;6.038;2023-10-09T04:19:32;100254.94;;;17.54;77.26
59419;BME280;45224;50.904;6.038;2023-10-09T04:21:18;100254.91;;;17.56;76.79
59419;BME280;45224;50.904;6.038;2023-10-09T04:22:49;100259.28;;;17.53;77.35
59419;BME280;45224;50.904;6.038;2023-10-09T04:24:23;100258.38;;;17.56;77.06
59419;BME280;45224;50.904;6.038;2023-10-09T04:25:53;100260.16;;;17.54;77.16
59419;BME280;45224;50.904;6.038;2023-10-09T04:27:23;100266.97;;;17.61;76.85
59419;BME280;45224;50.904;6.038;2023-10-09T04:29:05;100255.78;;;17.55;77.29
59419;BME280;45224;50.904;6.038;2023-10-09T04:30:40;100256.75;;;17.50;77.64
59419;BME280;45224;50.904;6.038;2023-10-09T04:32:13;100262.94;;;17.46;78.11
59419;BME280;45224;50.904;6.038;2023-10-09T04:33:47;100263.78;;;17.47;77.70
59419;BME280;45224;50.904;6.038;2023-10-09T04:35:30;100278.56;;;17.49;77.30
59419;BME280;45224;50.904;6.038;2023-10-09T04:37:01;100265.56;;;17.45;77.88
59419;BME280;45224;50.904;6.038;2023-10-09T04:38:31;100260.34;;;17.45;78.11
59419;BME280;45224;50.904;6.038;2023-10-09T04:40:04;100249.00;;;17.46;78.04
59419;BME280;45224;50.904;6.038;2023-10-09T04:41:43;100242.94;;;17.44;78.18
59419;BME280;45224;50.904;6.038;2023-10-09T04:43:14;100241.22;;;17.43;78.42
59419;BME280;45224;50.904;6.038;2023-10-09T04:44:53;100248.13;;;17.45;78.05
59419;BME280;45224;50.904;6.038;2023-10-09T04:46:32;100237.75;;;17.41;78.53
59419;BME280;45224;50.904;6.038;2023-10-09T04:48:14;100226.59;;;17.34;78.65
59419;BME280;45224;50.904;6.038;2023-10-09T04:50:09;100242.25;;;17.34;78.78
59419;BME280;45224;50.904;6.038;2023-10-09T04:51:40;100244.78;;;17.39;78.50
59419;BME280;45224;50.904;6.038;2023-10-09T04:53:25;100242.09;;;17.42;78.31
59419;BME280;45224;50.904;6.038;2023-10-09T04:55:00;100242.28;;;17.32;78.76
59419;BME280;45224;50.904;6.038;2023-10-09T04:56:40;100236.16;;;17.35;78.70
59419;BME280;45224;50.904;6.038;2023-10-09T04:58:24;100244.91;;;17.32;78.83
59419;BME280;45224;50.904;6.038;2023-10-09T04:59:56;100241.34;;;17.37;78.34
59419;BME280;45224;50.904;6.038;2023-10-09T05:01:29;100234.34;;;17.39;78.24
59419;BME280;45224;50.904;6.038;2023-10-09T05:03:06;100229.16;;;17.36;78.36
59419;BME280;45224;50.904;6.038;2023-10-09T05:04:57;100232.69;;;17.34;78.42
59419;BME280;45224;50.904;6.038;2023-10-09T05:06:58;100222.38;;;17.28;78.66
59419;BME280;45224;50.904;6.038;2023-10-09T05:08:28;100216.19;;;17.31;78.45
59419;BME280;45224;50.904;6.038;2023-10-09T05:09:59;100208.34;;;17.31;78.53
59419;BME280;45224;50.904;6.038;2023-10-09T05:11:48;100218.19;;;17.18;79.25
59419;BME280;45224;50.904;6.038;2023-10-09T05:13:21;100213.78;;;17.22;78.78
59419;BME280;45224;50.904;6.038;2023-10-09T05:15:12;100212.00;;;17.24;78.75
59419;BME280;45224;50.904;6.038;2023-10-09T05:16:43;100214.59;;;17.25;78.87
59419;BME280;45224;50.904;6.038;2023-10-09T05:18:31;100213.84;;;17.19;79.09
59419;BME280;45224;50.904;6.038;2023-10-09T05:20:06;100204.22;;;17.21;79.19
59419;BME280;45224;50.904;6.038;2023-10-09T05:21:52;100205.22;;;17.15;79.34
59419;BME280;45224;50.904;6.038;2023-10-09T05:23:23;100191.25;;;17.16;79.51
59419;BME280;45224;50.904;6.038;2023-10-09T05:24:53;100196.47;;;17.16;79.62
59419;BME280;45224;50.904;6.038;2023-10-09T05:26:25;100198.16;;;17.20;79.62
59419;BME280;45224;50.904;6.038;2023-10-09T05:28:13;100195.53;;;17.20;79.13
59419;BME280;45224;50.904;6.038;2023-10-09T05:30:01;100213.13;;;17.12;80.15
59419;BME280;45224;50.904;6.038;2023-10-09T05:31:43;100215.72;;;17.12;79.67
59419;BME280;45224;50.904;6.038;2023-10-09T05:33:26;100203.50;;;17.14;80.00
59419;BME280;45224;50.904;6.038;2023-10-09T05:35:00;100211.44;;;17.08;80.17
59419;BME280;45224;50.904;6.038;2023-10-09T05:36:30;100210.56;;;17.09;80.09
59419;BME280;45224;50.904;6.038;2023-10-09T05:38:00;100222.78;;;17.07;80.21
59419;BME280;45224;50.904;6.038;2023-10-09T05:39:35;100230.56;;;17.10;79.97
59419;BME280;45224;50.904;6.038;2023-10-09T05:41:12;100224.50;;;17.08;80.17
59419;BME280;45224;50.904;6.038;2023-10-09T05:43:15;100232.47;;;17.02;81.01
59419;BME280;45224;50.904;6.038;2023-10-09T05:45:10;100240.28;;;17.02;80.43
59419;BME280;45224;50.904;6.038;2023-10-09T05:46:59;100233.47;;;16.94;80.74
59419;BME280;45224;50.904;6.038;2023-10-09T05:48:55;100236.06;;;16.96;80.60
59419;BME280;45224;50.904;6.038;2023-10-09T05:50:39;100222.00;;;17.02;80.27
59419;BME280;45224;50.904;6.038;2023-10-09T05:52:29;100221.41;;;16.87;80.98
59419;BME280;45224;50.904;6.038;2023-10-09T05:54:23;100223.97;;;16.90;80.95
59419;BME280;45224;50.904;6.038;2023-10-09T05:56:12;100223.09;;;16.91;80.66
59419;BME280;45224;50.904;6.038;2023-10-09T05:58:01;100227.47;;;16.91;80.77
59419;BME280;45224;50.904;6.038;2023-10-09T05:59:50;100226.63;;;16.87;80.56
59419;BME280;45224;50.904;6.038;2023-10-09T06:01:42;100235.28;;;16.92;80.45
59419;BME280;45224;50.904;6.038;2023-10-09T06:03:44;100225.06;;;16.77;81.27
59419;BME280;45224;50.904;6.038;2023-10-09T06:05:54;100223.28;;;16.79;80.98
59419;BME280;45224;50.904;6.038;2023-10-09T06:07:27;100225.06;;;16.77;81.06
59419;BME280;45224;50.904;6.038;2023-10-09T06:09:18;100232.84;;;16.80;80.39
59419;BME280;45224;50.904;6.038;2023-10-09T06:10:48;100234.50;;;16.86;80.46
59419;BME280;45224;50.904;6.038;2023-10-09T06:12:19;100237.09;;;16.84;80.70
59419;BME280;45224;50.904;6.038;2023-10-09T06:14:02;100238.84;;;16.87;80.56
59419;BME280;45224;50.904;6.038;2023-10-09T06:15:38;100238.91;;;16.82;80.44
59419;BME280;45224;50.904;6.038;2023-10-09T06:17:21;100251.94;;;16.82;80.56
59419;BME280;45224;50.904;6.038;2023-10-09T06:18:57;100244.03;;;16.88;80.28
59419;BME280;45224;50.904;6.038;2023-10-09T06:20:56;100243.22;;;16.86;80.52
59419;BME280;45224;50.904;6.038;2023-10-09T06:22:35;100239.84;;;16.79;80.81
59419;BME280;45224;50.904;6.038;2023-10-09T06:24:08;100233.69;;;16.80;81.01
59419;BME280;45224;50.904;6.038;2023-10-09T06:25:44;100230.16;;;16.85;80.87
59419;BME280;45224;50.904;6.038;2023-10-09T06:27:33;100231.00;;;16.87;80.86
59419;BME280;45224;50.904;6.038;2023-10-09T06:29:03;100227.53;;;16.88;80.98
59419;BME280;45224;50.904;6.038;2023-10-09T06:30:47;100219.72;;;16.86;81.11
59419;BME280;45224;50.904;6.038;2023-10-09T06:32:18;100212.75;;;16.85;80.90
59419;BME280;45224;50.904;6.038;2023-10-09T06:33:49;100218.81;;;16.84;81.11
59419;BME280;45224;50.904;6.038;2023-10-09T06:35:39;100232.66;;;16.92;80.64
59419;BME280;45224;50.904;6.038;2023-10-09T06:37:11;100243.97;;;16.93;80.74
59419;BME280;45224;50.904;6.038;2023-10-09T06:39:04;100260.38;;;17.00;80.50
59419;BME280;45224;50.904;6.038;2023-10-09T06:40:53;100276.81;;;17.05;80.31
59419;BME280;45224;50.904;6.038;2023-10-09T06:42:42;100284.53;;;17.11;80.07
59419;BME280;45224;50.904;6.038;2023-10-09T06:44:13;100280.25;;;17.07;80.18
59419;BME280;45224;50.904;6.038;2023-10-09T06:46:03;100275.19;;;16.99;80.86
59419;BME280;45224;50.904;6.038;2023-10-09T06:47:52;100276.88;;;17.00;80.83
59419;BME280;45224;50.904;6.038;2023-10-09T06:49:40;100285.59;;;17.02;80.85
59419;BME280;45224;50.904;6.038;2023-10-09T06:51:30;100289.03;;;17.03;81.12
59419;BME280;45224;50.904;6.038;2023-10-09T06:53:01;100275.91;;;17.07;80.97
59419;BME280;45224;50.904;6.038;2023-10-09T06:54:40;100285.47;;;17.07;80.99
59419;BME280;45224;50.904;6.038;2023-10-09T06:56:22;100290.63;;;17.10;80.97
59419;BME280;45224;50.904;6.038;2023-10-09T06:57:54;100297.75;;;17.02;81.03
59419;BME280;45224;50.904;6.038;2023-10-09T06:59:25;100288.34;;;16.94;81.87
59419;BME280;45224;50.904;6.038;2023-10-09T07:01:11;100283.88;;;17.00;81.12
59419;BME280;45224;50.904;6.038;2023-10-09T07:03:00;100279.50;;;17.00;81.78
59419;BME280;45224;50.904;6.038;2023-10-09T07:04:41;100294.22;;;17.06;80.93
59419;BME280;45224;50.904;6.038;2023-10-09T07:06:11;100288.94;;;17.09;80.94
59419;BME280;45224;50.904;6.038;2023-10-09T07:07:54;100296.81;;;17.07;81.04
59419;BME280;45224;50.904;6.038;2023-10-09T07:09:25;100302.81;;;17.11;81.02
59419;BME280;45224;50.904;6.038;2023-10-09T07:11:12;100313.22;;;17.14;80.89
59419;BME280;45224;50.904;6.038;2023-10-09T07:12:57;100312.31;;;17.17;80.18
59419;BME280;45224;50.904;6.038;2023-10-09T07:14:28;100313.91;;;17.24;80.39
59419;BME280;45224;50.904;6.038;2023-10-09T07:16:01;100307.81;;;17.23;80.51
59419;BME280;45224;50.904;6.038;2023-10-09T07:17:50;100305.31;;;17.17;80.78
59419;BME280;45224;50.904;6.038;2023-10-09T07:19:23;100312.19;;;17.21;80.49
59419;BME280;45224;50.904;6.038;2023-10-09T07:21:25;100306.16;;;17.19;80.66
59419;BME280;45224;50.904;6.038;2023-10-09T07:22:59;100307.88;;;17.20;80.83
59419;BME280;45224;50.904;6.038;2023-10-09T07:24:43;100300.91;;;17.21;80.91
59419;BME280;45224;50.904;6.038;2023-10-09T07:26:14;100311.31;;;17.22;80.62
59419;BME280;45224;50.904;6.038;2023-10-09T07:27:48;100313.94;;;17.22;80.87
59419;BME280;45224;50.904;6.038;2023-10-09T07:29:20;100313.06;;;17.23;80.89
59419;BME280;45224;50.904;6.038;2023-10-09T07:30:53;100309.50;;;17.26;80.71
59419;BME280;45224;50.904;6.038;2023-10-09T07:32:28;100307.81;;;17.23;81.11
59419;BME280;45224;50.904;6.038;2023-10-09T07:33:58;100306.94;;;17.23;81.18
59419;BME280;45224;50.904;6.038;2023-10-09T07:35:32;100311.16;;;17.31;80.74
59419;BME280;45224;50.904;6.038;2023-10-09T07:37:15;100309.47;;;17.27;81.65
59419;BME280;45224;50.904;6.038;2023-10-09T07:38:49;100307.69;;;17.29;80.83
59419;BME280;45224;50.904;6.038;2023-10-09T07:40:25;100302.41;;;17.32;81.00
59419;BME280;45224;50.904;6.038;2023-10-09T07:42:04;100305.03;;;17.31;80.83
59419;BME280;45224;50.904;6.038;2023-10-09T07:43:50;100304.06;;;17.37;80.68
59419;BME280;45224;50.904;6.038;2023-10-09T07:45:21;100298.84;;;17.37;80.60
59419;BME280;45224;50.904;6.038;2023-10-09T07:46:51;100299.72;;;17.36;80.78
59419;BME280;45224;50.904;6.038;2023-10-09T07:48:41;100293.81;;;17.26;81.09
59419;BME280;45224;50.904;6.038;2023-10-09T07:50:24;100289.31;;;17.34;80.76
59419;BME280;45224;50.904;6.038;2023-10-09T07:51:54;100302.34;;;17.36;80.55
59419;BME280;45224;50.904;6.038;2023-10-09T07:53:26;100300.63;;;17.34;80.84
59419;BME280;45224;50.904;6.038;2023-10-09T07:54:56;100312.78;;;17.36;80.91
59419;BME280;45224;50.904;6.038;2023-10-09T07:56:48;100314.59;;;17.33;80.77
59419;BME280;45224;50.904;6.038;2023-10-09T07:58:24;100318.94;;;17.34;80.94
59419;BME280;45224;50.904;6.038;2023-10-09T07:59:55;100321.41;;;17.41;80.56
59419;BME280;45224;50.904;6.038;2023-10-09T08:01:31;100320.56;;;17.39;80.75
59419;BME280;45224;50.904;6.038;2023-10-09T08:03:07;100314.47;;;17.40;80.56
59419;BME280;45224;50.904;6.038;2023-10-09T08:04:54;100308.31;;;17.42;80.60
59419;BME280;45224;50.904;6.038;2023-10-09T08:06:24;100311.09;;;17.34;81.42
59419;BME280;45224;50.904;6.038;2023-10-09T08:08:24;100295.34;;;17.38;80.91
59419;BME280;45224;50.904;6.038;2023-10-09T08:10:04;100296.00;;;17.49;80.36
59419;BME280;45224;50.904;6.038;2023-10-09T08:11:47;100303.97;;;17.43;80.93
59419;BME280;45224;50.904;6.038;2023-10-09T08:13:17;100295.22;;;17.42;81.09
59419;BME280;45224;50.904;6.038;2023-10-09T08:15:11;100305.53;;;17.50;80.64
59419;BME280;45224;50.904;6.038;2023-10-09T08:16:50;100293.38;;;17.49;80.63
59419;BME280;45224;50.904;6.038;2023-10-09T08:18:41;100299.34;;;17.56;80.26
59419;BME280;45224;50.904;6.038;2023-10-09T08:20:15;100302.69;;;17.62;80.10
59419;BME280;45224;50.904;6.038;2023-10-09T08:21:47;100309.63;;;17.63;79.97
59419;BME280;45224;50.904;6.038;2023-10-09T08:23:37;100305.31;;;17.62;79.79
59419;BME280;45224;50.904;6.038;2023-10-09T08:25:20;100303.50;;;17.64;79.76
59419;BME280;45224;50.904;6.038;2023-10-09T08:26:56;100302.59;;;17.67;79.63
59419;BME280;45224;50.904;6.038;2023-10-09T08:28:47;100303.44;;;17.67;79.79
59419;BME280;45224;50.904;6.038;2023-10-09T08:30:17;100310.34;;;17.72;80.07